Terminal Aerodrome Forecast
Issued by NWS

Home | Current Version | Previous Version | Text Only | Print | Product List | Glossary On
Versions: 1 2 3 4 5 6 7 8 9 10 11 12 13
683
FTUS45 KABQ 251134
TAFLVS
TAF
KLVS 251134Z 2512/2612 VRB05KT P6SM SCT150
     FM251930 17010KT P6SM VCSH SCT090 BKN130
     FM252100 20011KT P6SM VCTS BKN070CB OVC120
      TEMPO 2522/2601 VRB15G25KT 6SM TSRA BKN060CB
     FM260200 07008KT P6SM -SHRA BKN060 OVC100
     FM260600 VRB05KT P6SM BKN060 OVC100=

USA.gov is the U.S. government's official web portal to all federal, state and local government web resources and services.